createdAt,value
2023-02-22T00:00:46.210Z,93739.31
2023-02-22T00:03:25.371Z,93741.75
2023-02-22T00:06:02.493Z,93711.34
2023-02-22T00:08:31.369Z,93729.16
2023-02-22T00:10:58.773Z,93723.78
2023-02-22T00:13:29.183Z,93686.25
2023-02-22T00:16:00.031Z,93718.38
2023-02-22T00:18:28.848Z,93714.31
2023-02-22T00:21:00.699Z,93707.56
2023-02-22T00:23:29.741Z,93697.03
2023-02-22T00:25:57.530Z,93734.31
2023-02-22T00:28:26.928Z,93724.59
2023-02-22T00:30:54.749Z,93694.88
2023-02-22T00:33:21.437Z,93707.56
2023-02-22T00:35:47.827Z,93697.28
2023-02-22T00:38:17.730Z,93729.13
2023-02-22T00:40:45.390Z,93718.53
2023-02-22T00:43:11.859Z,93709.16
2023-02-22T00:45:38.295Z,93709.72
2023-02-22T00:48:06.056Z,93713.47
2023-02-22T00:50:33.525Z,93728.88
2023-02-22T00:53:01.945Z,93731.31
2023-02-22T00:55:32.830Z,93707.84
2023-02-22T00:58:03.313Z,93730.53
2023-02-22T01:00:37.272Z,93723.63
2023-02-22T01:03:10.640Z,93728.38
2023-02-22T01:05:40.858Z,93724.88
2023-02-22T01:08:12.168Z,93716.47
2023-02-22T01:10:39.421Z,93725.94
2023-02-22T01:13:12.118Z,93720.00
2023-02-22T01:15:41.551Z,93716.47
2023-02-22T01:18:08.327Z,93698.38
2023-02-22T01:20:35.460Z,93720.28
2023-02-22T01:23:03.826Z,93722.44
2023-02-22T01:25:31.388Z,93712.44
2023-02-22T01:27:59.816Z,93712.44
2023-02-22T01:30:28.896Z,93692.97
2023-02-22T01:32:55.776Z,93717.84
2023-02-22T01:35:25.883Z,93722.31
2023-02-22T01:37:52.290Z,93687.06
2023-02-22T01:40:22.528Z,93675.97
2023-02-22T01:42:53.243Z,93713.25
2023-02-22T01:45:32.698Z,93712.97
2023-02-22T01:48:05.136Z,93713.25
2023-02-22T01:50:35.174Z,93701.34
2023-02-22T01:53:02.127Z,93700.66
2023-02-22T01:55:29.091Z,93689.75
2023-02-22T01:57:55.610Z,93674.88
2023-02-22T02:00:24.304Z,93690.00
2023-02-22T02:03:04.817Z,93672.69
2023-02-22T02:05:33.066Z,93699.19
2023-02-22T02:08:14.497Z,93682.03
2023-02-22T02:10:42.753Z,93702.84
2023-02-22T02:13:10.078Z,93673.78
2023-02-22T02:15:37.016Z,93671.84
2023-02-22T02:18:11.111Z,93685.06
2023-02-22T02:20:56.600Z,93692.13
2023-02-22T02:23:54.935Z,93689.69
2023-02-22T02:26:59.108Z,93689.66
2023-02-22T02:29:28.358Z,93686.25
2023-02-22T02:32:28.064Z,93689.41
2023-02-22T02:35:26.331Z,93653.75
2023-02-22T02:38:01.849Z,93678.06
2023-02-22T02:40:56.152Z,93672.94
2023-02-22T02:43:37.890Z,93658.06
2023-02-22T02:46:10.104Z,93650.22
2023-02-22T02:48:40.834Z,93643.75
2023-02-22T02:51:09.202Z,93652.53
2023-02-22T02:53:40.983Z,93630.63
2023-02-22T02:56:07.901Z,93652.63
2023-02-22T02:58:34.403Z,93631.31
2023-02-22T03:01:04.467Z,93644.00
2023-02-22T03:03:51.048Z,93626.69
2023-02-22T03:06:57.343Z,93633.34
2023-02-22T03:09:59.120Z,93651.03
2023-02-22T03:12:38.519Z,93629.69
2023-02-22T03:15:34.952Z,93643.63
2023-02-22T03:18:17.612Z,93643.47
2023-02-22T03:21:23.593Z,93624.50
2023-02-22T03:23:55.657Z,93641.56
2023-02-22T03:26:38.215Z,93655.59
2023-02-22T03:29:07.863Z,93633.72
2023-02-22T03:31:40.314Z,93610.75
2023-02-22T03:34:15.507Z,93615.88
2023-02-22T03:36:50.002Z,93638.88
2023-02-22T03:39:20.247Z,93607.25
2023-02-22T03:41:51.339Z,93616.44
2023-02-22T03:44:24.630Z,93628.06
2023-02-22T03:46:53.430Z,93609.78
2023-02-22T03:49:32.193Z,93615.28
2023-02-22T03:51:59.511Z,93613.41
2023-02-22T03:54:27.391Z,93638.50
2023-02-22T03:57:15.868Z,93613.59
2023-02-22T03:59:43.200Z,93606.59
2023-02-22T04:02:09.627Z,93610.09
2023-02-22T04:04:36.071Z,93626.63
2023-02-22T04:07:02.724Z,93621.44
2023-02-22T04:09:29.164Z,93620.41
2023-02-22T04:11:55.576Z,93624.72
2023-02-22T04:14:23.771Z,93611.19
2023-02-22T04:16:50.645Z,93600.13
2023-02-22T04:19:17.100Z,93609.56
2023-02-22T04:21:43.476Z,93609.84
2023-02-22T04:24:09.848Z,93603.59
2023-02-22T04:26:36.228Z,93608.16
2023-02-22T04:29:04.184Z,93611.28
2023-02-22T04:31:31.580Z,93604.09
2023-02-22T04:33:58.017Z,93620.59
2023-02-22T04:36:24.389Z,93609.94
2023-02-22T04:38:50.797Z,93595.06
2023-02-22T04:41:19.013Z,93623.63
2023-02-22T04:43:46.472Z,93618.19
2023-02-22T04:46:13.549Z,93616.56
2023-02-22T04:48:40.010Z,93576.56
2023-02-22T04:51:06.715Z,93595.50
2023-02-22T04:53:33.093Z,93545.78
2023-02-22T04:55:59.571Z,93603.31
2023-02-22T04:58:25.988Z,93577.31
2023-02-22T05:00:52.961Z,93587.97
2023-02-22T05:03:19.568Z,93562.22
2023-02-22T05:05:45.923Z,93582.78
2023-02-22T05:08:12.290Z,93574.69
2023-02-22T05:10:39.669Z,93586.56
2023-02-22T05:13:06.151Z,93574.94
2023-02-22T05:15:32.629Z,93565.19
2023-02-22T05:17:59.005Z,93588.66
2023-02-22T05:20:31.716Z,93598.56
2023-02-22T05:22:59.735Z,93602.75
2023-02-22T05:25:26.819Z,93597.88
2023-02-22T05:27:55.517Z,93606.50
2023-02-22T05:30:33.768Z,93604.84
2023-02-22T05:33:00.908Z,93612.63
2023-02-22T05:35:28.000Z,93604.72
2023-02-22T05:37:55.239Z,93580.13
2023-02-22T05:40:25.195Z,93602.66
2023-02-22T05:42:53.231Z,93566.47
2023-02-22T05:45:22.532Z,93598.88
2023-02-22T05:47:50.235Z,93593.78
2023-02-22T05:50:18.075Z,93568.09
2023-02-22T05:52:46.328Z,93567.41
2023-02-22T05:55:14.416Z,93582.00
2023-02-22T05:57:40.817Z,93576.72
2023-02-22T06:00:09.150Z,93602.22
2023-02-22T06:02:35.525Z,93588.78
2023-02-22T06:05:01.887Z,93571.84
2023-02-22T06:07:28.241Z,93598.53
2023-02-22T06:09:55.923Z,93583.69
2023-02-22T06:12:22.332Z,93602.28
2023-02-22T06:14:48.733Z,93603.75
2023-02-22T06:17:15.815Z,93599.47
2023-02-22T06:19:42.267Z,93584.81
2023-02-22T06:22:08.831Z,93592.97
2023-02-22T06:24:38.534Z,93599.66
2023-02-22T06:27:04.901Z,93590.44
2023-02-22T06:29:32.784Z,93605.28
2023-02-22T06:31:59.282Z,93595.78
2023-02-22T06:34:25.730Z,93597.44
2023-02-22T06:36:53.136Z,93605.34
2023-02-22T06:39:19.535Z,93600.09
2023-02-22T06:41:47.173Z,93633.72
2023-02-22T06:44:15.343Z,93630.47
2023-02-22T06:46:49.153Z,93629.66
2023-02-22T06:49:15.547Z,93624.81
2023-02-22T06:51:42.037Z,93630.22
2023-02-22T06:54:08.807Z,93641.06
2023-02-22T06:56:35.288Z,93625.41
2023-02-22T06:59:04.390Z,93615.47
2023-02-22T07:01:31.099Z,93647.63
2023-02-22T07:03:57.580Z,93629.03
2023-02-22T07:06:23.940Z,93632.88
2023-02-22T07:08:50.318Z,93643.97
2023-02-22T07:11:18.014Z,93548.09
2023-02-22T07:13:45.694Z,93631.56
2023-02-22T07:16:12.160Z,93622.69
2023-02-22T07:18:38.654Z,93616.75
2023-02-22T07:21:05.371Z,93619.09
2023-02-22T07:23:31.755Z,93617.09
2023-02-22T07:26:00.896Z,93645.84
2023-02-22T07:28:27.269Z,93602.78
2023-02-22T07:30:53.656Z,93626.28
2023-02-22T07:33:20.070Z,93614.94
2023-02-22T07:35:48.470Z,93614.94
2023-02-22T07:38:18.096Z,93638.41
2023-02-22T07:40:44.969Z,93633.66
2023-02-22T07:43:20.855Z,93634.31
2023-02-22T07:45:49.315Z,93634.13
2023-02-22T07:48:17.799Z,93634.66
2023-02-22T07:50:44.349Z,93609.53
2023-02-22T07:53:24.359Z,93577.16
2023-02-22T07:55:51.805Z,93635.63
2023-02-22T07:58:21.107Z,93627.19
2023-02-22T08:00:48.432Z,93601.47
2023-02-22T08:03:16.681Z,93605.09
2023-02-22T08:05:46.981Z,93614.22
2023-02-22T08:08:19.675Z,93605.25
2023-02-22T08:10:47.077Z,93544.84
2023-02-22T08:13:13.453Z,93606.28
2023-02-22T08:15:41.606Z,93583.94
2023-02-22T08:18:11.399Z,93610.38
2023-02-22T08:20:40.770Z,93612.72
2023-02-22T08:23:08.244Z,93588.66
2023-02-22T08:25:35.211Z,93610.91
2023-02-22T08:28:06.900Z,93597.47
2023-02-22T08:30:35.050Z,93604.84
2023-02-22T08:33:03.059Z,93582.97
2023-02-22T08:35:31.639Z,93598.69
2023-02-22T08:38:01.231Z,93604.53
2023-02-22T08:40:31.105Z,93599.91
2023-02-22T08:42:57.740Z,93603.69
2023-02-22T08:45:24.268Z,93585.63
2023-02-22T08:47:50.733Z,93578.84
2023-02-22T08:50:23.568Z,93596.63
2023-02-22T08:52:59.236Z,93601.28
2023-02-22T08:55:32.518Z,93595.59
2023-02-22T08:58:01.356Z,93586.28
2023-02-22T09:00:29.537Z,93559.78
2023-02-22T09:02:56.102Z,93580.41
2023-02-22T09:05:22.539Z,93577.09
2023-02-22T09:07:49.078Z,93562.81
2023-02-22T09:10:18.383Z,93592.03
2023-02-22T09:12:44.808Z,93563.50
2023-02-22T09:15:12.310Z,93563.84
2023-02-22T09:17:39.654Z,93560.22
2023-02-22T09:20:08.491Z,93545.78
2023-02-22T09:22:35.857Z,93570.84
2023-02-22T09:25:11.208Z,93564.94
2023-02-22T09:27:43.567Z,93554.31
2023-02-22T09:30:24.735Z,93562.38
2023-02-22T09:32:56.320Z,93558.25
2023-02-22T09:35:29.263Z,93544.06
2023-02-22T09:37:57.018Z,93557.13
2023-02-22T09:40:25.775Z,93559.13
2023-02-22T09:43:14.053Z,93543.84
2023-02-22T09:45:45.045Z,93555.56
2023-02-22T09:48:21.742Z,93532.81
2023-02-22T09:50:51.657Z,93531.28
2023-02-22T09:53:31.612Z,93549.69
2023-02-22T09:56:06.831Z,93553.00
2023-02-22T09:58:36.760Z,93526.38
2023-02-22T10:01:14.431Z,93539.84
2023-02-22T10:04:14.034Z,93547.50
2023-02-22T10:06:52.528Z,93527.53
2023-02-22T10:09:19.019Z,93527.25
2023-02-22T10:12:09.750Z,93542.16
2023-02-22T10:15:07.205Z,93534.16
2023-02-22T10:17:39.392Z,93542.19
2023-02-22T10:20:28.540Z,93543.84
2023-02-22T10:23:19.787Z,93530.22
2023-02-22T10:25:55.712Z,93504.34
2023-02-22T10:28:39.090Z,93539.44
2023-02-22T10:31:15.737Z,93537.25
2023-02-22T10:33:47.707Z,93523.81
2023-02-22T10:36:23.707Z,93533.41
2023-02-22T10:39:30.642Z,93522.53
2023-02-22T10:42:05.848Z,93514.16
2023-02-22T10:44:37.475Z,93513.31
2023-02-22T10:47:08.111Z,93521.34
2023-02-22T10:49:39.821Z,93536.13
2023-02-22T10:52:22.011Z,93538.75
2023-02-22T10:54:51.832Z,93497.16
2023-02-22T10:57:25.613Z,93528.03
2023-02-22T10:59:52.494Z,93489.91
2023-02-22T11:02:24.657Z,93525.69
2023-02-22T11:04:54.143Z,93520.59
2023-02-22T11:07:38.649Z,93514.19
2023-02-22T11:10:09.521Z,93521.69
2023-02-22T11:12:48.481Z,93524.97
2023-02-22T11:15:17.593Z,93522.53
2023-02-22T11:17:46.294Z,93517.94
2023-02-22T11:20:25.254Z,93529.72
2023-02-22T11:22:58.322Z,93525.00
2023-02-22T11:25:30.343Z,93521.13
2023-02-22T11:28:08.268Z,93489.38
2023-02-22T11:30:36.098Z,93452.31
2023-02-22T11:33:24.464Z,93483.66
2023-02-22T11:35:52.889Z,93504.31
2023-02-22T11:38:40.353Z,93499.25
2023-02-22T11:41:15.248Z,93501.59
2023-02-22T11:43:43.525Z,93478.59
2023-02-22T11:46:13.905Z,93496.91
2023-02-22T11:48:53.880Z,93464.34
2023-02-22T11:51:57.249Z,93483.47
2023-02-22T11:54:47.422Z,93471.69
2023-02-22T11:57:30.336Z,93468.41
2023-02-22T12:00:16.173Z,93469.31
2023-02-22T12:03:26.500Z,93470.28
2023-02-22T12:06:06.615Z,93471.16
2023-02-22T12:09:02.795Z,93462.22
2023-02-22T12:11:40.469Z,93438.50
2023-02-22T12:14:12.901Z,93463.00
2023-02-22T12:16:54.803Z,93444.94
2023-02-22T12:19:30.899Z,93435.16
2023-02-22T12:22:02.293Z,93433.59
2023-02-22T12:25:00.761Z,93421.44
2023-02-22T12:27:41.048Z,93448.03
2023-02-22T12:30:36.289Z,93442.38
2023-02-22T12:33:14.056Z,93424.56
2023-02-22T12:35:46.114Z,93428.78
2023-02-22T12:38:23.412Z,93435.56
2023-02-22T12:41:03.951Z,93437.78
2023-02-22T12:43:38.911Z,93408.69
2023-02-22T12:46:13.587Z,93433.03
2023-02-22T12:48:54.257Z,93404.53
2023-02-22T12:51:51.573Z,93425.41
2023-02-22T12:54:46.429Z,93393.09
2023-02-22T12:57:36.148Z,93411.09
2023-02-22T13:00:17.129Z,93397.97
2023-02-22T13:02:45.448Z,93397.44
2023-02-22T13:05:17.869Z,93409.16
2023-02-22T13:07:59.313Z,93388.16
2023-02-22T13:10:53.632Z,93406.53
2023-02-22T13:13:33.348Z,93390.56
2023-02-22T13:16:21.735Z,93399.31
2023-02-22T13:19:07.951Z,93365.06
2023-02-22T13:21:55.453Z,93387.41
2023-02-22T13:24:30.291Z,93373.41
2023-02-22T13:27:01.779Z,93367.75
2023-02-22T13:29:47.254Z,93388.81
2023-02-22T13:32:28.696Z,93402.47
2023-02-22T13:35:20.968Z,93399.13
2023-02-22T13:37:59.627Z,93388.56
2023-02-22T13:40:42.462Z,93396.25
2023-02-22T13:43:42.409Z,93388.59
2023-02-22T13:46:19.030Z,93401.13
2023-02-22T13:49:10.575Z,93395.53
2023-02-22T13:51:52.668Z,93373.88
2023-02-22T13:54:44.943Z,93396.88
2023-02-22T13:57:20.861Z,93396.53
2023-02-22T13:59:47.404Z,93368.13
2023-02-22T14:02:52.491Z,93367.84
2023-02-22T14:05:41.521Z,93396.31
2023-02-22T14:08:27.842Z,93394.22
2023-02-22T14:10:56.334Z,93399.88
2023-02-22T14:13:27.552Z,93381.63
2023-02-22T14:16:19.198Z,93390.88
2023-02-22T14:19:00.002Z,93391.06
2023-02-22T14:21:26.566Z,93369.28
2023-02-22T14:23:54.279Z,93366.88
2023-02-22T14:26:31.158Z,93395.06
2023-02-22T14:29:07.786Z,93373.25
2023-02-22T14:31:40.477Z,93399.75
2023-02-22T14:34:17.487Z,93398.47
2023-02-22T14:36:56.232Z,93395.13
2023-02-22T14:39:51.006Z,93397.50
2023-02-22T14:42:34.500Z,93374.72
2023-02-22T14:45:26.907Z,93397.03
2023-02-22T14:48:20.329Z,93398.28
2023-02-22T14:51:29.101Z,93398.00
2023-02-22T14:54:18.637Z,93401.38
2023-02-22T14:57:00.505Z,93401.19
2023-02-22T14:59:30.749Z,93366.56
2023-02-22T15:02:12.440Z,93389.38
2023-02-22T15:04:43.764Z,93380.91
2023-02-22T15:07:27.910Z,93394.91
2023-02-22T15:10:17.782Z,93399.50
2023-02-22T15:13:08.536Z,93378.47
2023-02-22T15:15:40.854Z,93395.47
2023-02-22T15:18:17.674Z,93389.50
2023-02-22T15:20:48.302Z,93392.81
2023-02-22T15:23:16.704Z,93387.94
2023-02-22T15:25:49.451Z,93406.19
2023-02-22T15:28:18.536Z,93402.25
2023-02-22T15:30:45.066Z,93410.03
2023-02-22T15:33:24.683Z,93404.59
2023-02-22T15:35:55.989Z,93412.38
2023-02-22T15:38:28.889Z,93378.75
2023-02-22T15:41:13.548Z,93401.72
2023-02-22T15:43:41.019Z,93390.13
2023-02-22T15:46:09.445Z,93411.59
2023-02-22T15:48:37.229Z,93368.22
2023-02-22T15:51:09.856Z,93420.19
2023-02-22T15:53:42.105Z,93390.78
2023-02-22T15:56:25.743Z,93422.16
2023-02-22T15:59:15.183Z,93418.34
2023-02-22T16:01:45.033Z,93381.22
2023-02-22T16:04:21.060Z,93389.47
2023-02-22T16:06:52.102Z,93406.34
2023-02-22T16:09:30.285Z,93385.84
2023-02-22T16:12:28.130Z,93405.91
2023-02-22T16:14:59.568Z,93392.78
2023-02-22T16:17:49.485Z,93402.88
2023-02-22T16:20:22.894Z,93415.66
2023-02-22T16:22:49.772Z,93407.13
2023-02-22T16:25:19.146Z,93417.03
2023-02-22T16:27:49.409Z,93410.75
2023-02-22T16:30:25.264Z,93416.34
2023-02-22T16:32:56.397Z,93419.97
2023-02-22T16:35:28.735Z,93380.97
2023-02-22T16:38:05.791Z,93404.84
2023-02-22T16:40:39.671Z,93417.84
2023-02-22T16:43:16.975Z,93365.09
2023-02-22T16:45:46.255Z,93385.31
2023-02-22T16:48:33.229Z,93397.47
2023-02-22T16:51:02.178Z,93425.94
2023-02-22T16:53:38.644Z,93409.25
2023-02-22T16:56:08.246Z,93423.53
2023-02-22T16:58:39.220Z,93432.59
2023-02-22T17:01:05.999Z,93394.97
2023-02-22T17:03:32.416Z,93362.94
2023-02-22T17:06:01.215Z,93433.06
2023-02-22T17:08:30.591Z,93391.78
2023-02-22T17:11:00.608Z,93419.44
2023-02-22T17:13:27.938Z,93440.34
2023-02-22T17:15:55.276Z,93435.50
2023-02-22T17:18:23.935Z,93450.34
2023-02-22T17:20:51.810Z,93457.56
2023-02-22T17:23:20.121Z,93418.66
2023-02-22T17:25:59.201Z,93424.66
2023-02-22T17:28:26.855Z,93463.06
2023-02-22T17:30:55.190Z,93455.13
2023-02-22T17:33:27.074Z,93445.66
2023-02-22T17:35:55.637Z,93471.69
2023-02-22T17:38:22.819Z,93433.41
2023-02-22T17:40:51.926Z,93460.19
2023-02-22T17:43:19.364Z,93470.19
2023-02-22T17:45:46.655Z,93487.34
2023-02-22T17:48:14.737Z,93447.75
2023-02-22T17:50:43.584Z,93456.88
2023-02-22T17:53:13.286Z,93466.16
2023-02-22T17:55:41.985Z,93485.72
2023-02-22T17:58:14.545Z,93487.88
2023-02-22T18:00:46.407Z,93453.09
2023-02-22T18:03:21.410Z,93439.31
2023-02-22T18:05:50.715Z,93474.50
2023-02-22T18:08:17.203Z,93489.56
2023-02-22T18:10:44.718Z,93472.19
2023-02-22T18:13:19.250Z,93500.16
2023-02-22T18:15:46.358Z,93480.78
2023-02-22T18:18:13.154Z,93490.88
2023-02-22T18:20:46.392Z,93496.22
2023-02-22T18:23:16.755Z,93501.41
2023-02-22T18:26:00.272Z,93472.34
2023-02-22T18:28:35.321Z,93460.59
2023-02-22T18:31:07.555Z,93446.88
2023-02-22T18:33:35.419Z,93441.47
2023-02-22T18:36:01.839Z,93414.34
2023-02-22T18:38:28.214Z,93486.31
2023-02-22T18:41:02.515Z,93482.06
2023-02-22T18:43:36.854Z,93479.91
2023-02-22T18:46:18.203Z,93502.59
2023-02-22T18:48:47.751Z,93495.22
2023-02-22T18:51:16.988Z,93502.09
2023-02-22T18:53:47.068Z,93463.31
2023-02-22T18:56:17.853Z,93501.66
2023-02-22T18:58:44.543Z,93490.59
2023-02-22T19:01:18.547Z,93506.84
2023-02-22T19:03:47.146Z,93481.59
2023-02-22T19:06:16.570Z,93499.72
2023-02-22T19:08:43.579Z,93484.09
2023-02-22T19:11:17.589Z,93506.22
2023-02-22T19:13:48.299Z,93478.25
2023-02-22T19:16:19.708Z,93499.63
2023-02-22T19:18:52.514Z,93509.81
2023-02-22T19:21:23.061Z,93469.03
2023-02-22T19:23:50.364Z,93495.97
2023-02-22T19:26:19.984Z,93463.63
2023-02-22T19:28:47.294Z,93482.97
2023-02-22T19:31:14.802Z,93504.22
2023-02-22T19:33:42.531Z,93493.69
2023-02-22T19:36:10.214Z,93467.72
2023-02-22T19:38:36.967Z,93482.03
2023-02-22T19:41:12.405Z,93477.22
2023-02-22T19:43:39.072Z,93475.97
2023-02-22T19:46:06.761Z,93491.16
2023-02-22T19:48:33.803Z,93504.94
2023-02-22T19:51:06.187Z,93505.91
2023-02-22T19:53:34.111Z,93456.28
2023-02-22T19:56:09.495Z,93468.09
2023-02-22T19:58:37.690Z,93504.94
2023-02-22T20:01:16.088Z,93505.97
2023-02-22T20:03:42.818Z,93499.53
2023-02-22T20:06:15.900Z,93483.28
2023-02-22T20:08:42.419Z,93492.56
2023-02-22T20:11:10.477Z,93507.78
2023-02-22T20:13:38.422Z,93510.41
2023-02-22T20:16:05.420Z,93487.28
2023-02-22T20:18:33.056Z,93502.16
2023-02-22T20:20:59.608Z,93507.19
2023-02-22T20:23:27.096Z,93476.06
2023-02-22T20:25:55.513Z,93498.31
2023-02-22T20:28:23.712Z,93514.78
2023-02-22T20:30:51.545Z,93520.75
2023-02-22T20:33:19.036Z,93510.25
2023-02-22T20:35:46.695Z,93523.44
2023-02-22T20:38:14.476Z,93506.97
2023-02-22T20:40:42.528Z,93523.53
2023-02-22T20:43:09.719Z,93502.16
2023-02-22T20:45:39.677Z,93523.38
2023-02-22T20:48:06.213Z,93512.16
2023-02-22T20:50:34.917Z,93508.69
2023-02-22T20:53:01.370Z,93514.88
2023-02-22T20:55:27.732Z,93540.91
2023-02-22T20:57:54.169Z,93510.00
2023-02-22T21:00:20.662Z,93511.63
2023-02-22T21:02:47.079Z,93505.28
2023-02-22T21:05:13.901Z,93519.63
2023-02-22T21:07:40.424Z,93497.16
2023-02-22T21:10:07.124Z,93531.81
2023-02-22T21:12:35.055Z,93536.53
2023-02-22T21:15:01.751Z,93496.69
2023-02-22T21:17:30.964Z,93527.59
2023-02-22T21:19:58.367Z,93516.06
2023-02-22T21:22:25.218Z,93531.53
2023-02-22T21:24:51.948Z,93527.75
2023-02-22T21:27:18.311Z,93500.94
2023-02-22T21:29:44.707Z,93502.16
2023-02-22T21:32:12.700Z,93531.44
2023-02-22T21:34:39.377Z,93533.88
2023-02-22T21:37:08.207Z,93502.84
2023-02-22T21:39:35.308Z,93540.28
2023-02-22T21:42:02.395Z,93517.88
2023-02-22T21:44:29.408Z,93504.94
2023-02-22T21:46:57.273Z,93519.53
2023-02-22T21:49:23.781Z,93536.09
2023-02-22T21:51:51.644Z,93507.09
2023-02-22T21:54:19.121Z,93521.00
2023-02-22T21:56:45.727Z,93523.84
2023-02-22T21:59:15.413Z,93532.50
2023-02-22T22:01:47.682Z,93532.13
2023-02-22T22:04:18.805Z,93520.91
2023-02-22T22:06:47.751Z,93524.84
2023-02-22T22:09:18.260Z,93502.69
2023-02-22T22:11:46.481Z,93501.22
2023-02-22T22:14:13.567Z,93489.09
2023-02-22T22:16:40.254Z,93520.50
2023-02-22T22:19:07.099Z,93493.03
2023-02-22T22:21:33.606Z,93491.56
2023-02-22T22:24:00.494Z,93445.38
2023-02-22T22:26:27.359Z,93498.47
2023-02-22T22:28:57.796Z,93511.81
2023-02-22T22:31:25.932Z,93520.56
2023-02-22T22:33:54.307Z,93524.06
2023-02-22T22:36:22.459Z,93512.88
2023-02-22T22:38:50.322Z,93496.97
2023-02-22T22:41:19.667Z,93526.00
2023-02-22T22:43:46.736Z,93462.97
2023-02-22T22:46:17.800Z,93513.22
2023-02-22T22:48:46.916Z,93508.38
2023-02-22T22:51:21.660Z,93526.06
2023-02-22T22:53:49.649Z,93522.25
2023-02-22T22:56:21.655Z,93506.13
2023-02-22T22:58:54.797Z,93531.81
2023-02-22T23:01:27.816Z,93524.56
2023-02-22T23:04:01.314Z,93510.94
2023-02-22T23:06:32.705Z,93497.13
2023-02-22T23:09:13.150Z,93521.47
2023-02-22T23:11:45.898Z,93511.00
2023-02-22T23:14:20.763Z,93498.75
2023-02-22T23:16:52.539Z,93504.13
2023-02-22T23:19:19.650Z,93527.75
2023-02-22T23:21:48.663Z,93524.06
2023-02-22T23:24:17.598Z,93476.94
2023-02-22T23:26:48.711Z,93500.22
2023-02-22T23:29:20.129Z,93523.53
2023-02-22T23:31:48.516Z,93507.84
2023-02-22T23:34:17.245Z,93503.84
2023-02-22T23:36:49.573Z,93490.63
2023-02-22T23:39:21.816Z,93518.75
2023-02-22T23:41:59.128Z,93492.28
2023-02-22T23:44:27.107Z,93498.34
2023-02-22T23:46:55.621Z,93520.78
2023-02-22T23:49:25.082Z,93501.53
2023-02-22T23:51:52.537Z,93497.09
2023-02-22T23:54:20.902Z,93504.78
2023-02-22T23:56:57.681Z,93516.03
2023-02-22T23:59:27.227Z,93518.38
